createdAt,value
2022-12-09T00:02:25.682Z,37.67
2022-12-09T00:04:53.151Z,39.23
2022-12-09T00:07:20.254Z,35.93
2022-12-09T00:09:47.761Z,40.53
2022-12-09T00:12:14.738Z,38.37
2022-12-09T00:14:41.922Z,39.93
2022-12-09T00:17:08.964Z,42.70
2022-12-09T00:19:36.256Z,42.70
2022-12-09T00:22:03.287Z,40.60
2022-12-09T00:24:30.652Z,40.47
2022-12-09T00:26:57.603Z,35.80
2022-12-09T00:29:25.585Z,40.30
2022-12-09T00:31:52.771Z,36.30
2022-12-09T00:34:20.295Z,41.83
2022-12-09T00:36:47.291Z,39.90
2022-12-09T00:39:14.518Z,36.17
2022-12-09T00:41:41.529Z,35.90
2022-12-09T00:44:09.728Z,37.60
2022-12-09T00:46:37.140Z,38.73
2022-12-09T00:49:05.058Z,39.67
2022-12-09T00:51:32.069Z,32.63
2022-12-09T00:53:59.596Z,34.13
2022-12-09T00:56:28.891Z,34.37
2022-12-09T00:58:57.403Z,33.97
2022-12-09T01:01:24.738Z,33.13
2022-12-09T01:03:52.119Z,33.27
2022-12-09T01:06:23.940Z,34.17
2022-12-09T01:08:51.733Z,39.07
2022-12-09T01:11:25.304Z,37.70
2022-12-09T01:13:53.615Z,34.90
2022-12-09T01:16:25.973Z,34.17
2022-12-09T01:18:54.868Z,32.13
2022-12-09T01:21:21.762Z,36.63
2022-12-09T01:23:49.420Z,34.13
2022-12-09T01:26:16.584Z,34.00
2022-12-09T01:28:44.011Z,38.60
2022-12-09T01:31:20.183Z,35.43
2022-12-09T01:33:48.077Z,35.37
2022-12-09T01:36:18.587Z,32.60
2022-12-09T01:38:47.306Z,33.83
2022-12-09T01:41:16.154Z,33.77
2022-12-09T01:43:43.522Z,37.40
2022-12-09T01:46:10.592Z,32.27
2022-12-09T01:48:44.784Z,34.83
2022-12-09T01:51:16.486Z,37.50
2022-12-09T01:53:46.511Z,33.80
2022-12-09T01:56:27.742Z,37.13
2022-12-09T01:59:02.434Z,32.97
2022-12-09T02:01:30.003Z,31.90
2022-12-09T02:03:57.736Z,37.27
2022-12-09T02:06:24.807Z,29.93
2022-12-09T02:08:52.504Z,33.30
2022-12-09T02:11:22.645Z,31.57
2022-12-09T02:14:08.870Z,27.67
2022-12-09T02:16:46.066Z,30.97
2022-12-09T02:19:41.853Z,32.53
2022-12-09T02:22:12.675Z,33.33
2022-12-09T02:24:59.274Z,33.47
2022-12-09T02:27:43.471Z,34.70
2022-12-09T02:30:21.892Z,28.53
2022-12-09T02:33:11.090Z,36.20
2022-12-09T02:35:48.670Z,32.97
2022-12-09T02:38:21.002Z,30.27
2022-12-09T02:40:58.579Z,32.53
2022-12-09T02:43:30.471Z,34.30
2022-12-09T02:46:00.472Z,30.00
2022-12-09T02:48:35.754Z,33.40
2022-12-09T02:51:10.749Z,29.57
2022-12-09T02:53:39.415Z,30.70
2022-12-09T02:56:08.349Z,34.60
2022-12-09T02:58:35.765Z,31.57
2022-12-09T03:01:03.972Z,30.07
2022-12-09T03:03:34.238Z,30.20
2022-12-09T03:06:08.272Z,31.90
2022-12-09T03:08:38.529Z,34.27
2022-12-09T03:11:16.561Z,41.23
2022-12-09T03:14:02.874Z,30.53
2022-12-09T03:16:32.678Z,34.30
2022-12-09T03:19:29.778Z,34.63
2022-12-09T03:22:00.463Z,27.80
2022-12-09T03:24:39.576Z,32.80
2022-12-09T03:27:11.072Z,37.70
2022-12-09T03:29:42.797Z,31.70
2022-12-09T03:32:12.672Z,34.87
2022-12-09T03:34:42.432Z,36.73
2022-12-09T03:37:12.119Z,33.63
2022-12-09T03:39:41.162Z,33.97
2022-12-09T03:42:19.396Z,33.37
2022-12-09T03:44:57.310Z,33.03
2022-12-09T03:47:24.695Z,35.07
2022-12-09T03:49:51.993Z,33.93
2022-12-09T03:52:46.588Z,36.90
2022-12-09T03:55:16.523Z,33.70
2022-12-09T03:57:45.921Z,34.50
2022-12-09T04:00:13.888Z,29.57
2022-12-09T04:02:41.948Z,31.47
2022-12-09T04:05:09.529Z,36.97
2022-12-09T04:07:37.105Z,35.50
2022-12-09T04:10:06.094Z,35.00
2022-12-09T04:12:33.962Z,33.93
2022-12-09T04:15:00.873Z,37.50
2022-12-09T04:17:28.155Z,37.93
2022-12-09T04:19:55.161Z,34.57
2022-12-09T04:22:22.507Z,39.27
2022-12-09T04:24:49.751Z,34.67
2022-12-09T04:27:17.112Z,38.07
2022-12-09T04:29:45.041Z,35.10
2022-12-09T04:32:12.769Z,35.23
2022-12-09T04:34:40.157Z,36.10
2022-12-09T04:37:07.565Z,41.00
2022-12-09T04:39:34.528Z,39.27
2022-12-09T04:42:02.625Z,33.83
2022-12-09T04:44:29.609Z,36.63
2022-12-09T04:46:59.207Z,30.93
2022-12-09T04:49:26.260Z,38.07
2022-12-09T04:51:53.836Z,30.30
2022-12-09T04:54:21.028Z,38.80
2022-12-09T04:56:49.592Z,32.43
2022-12-09T04:59:16.836Z,32.57
2022-12-09T05:01:44.394Z,41.13
2022-12-09T05:04:12.015Z,33.47
2022-12-09T05:06:39.564Z,36.40
2022-12-09T05:09:11.457Z,34.47
2022-12-09T05:11:39.260Z,37.43
2022-12-09T05:14:06.658Z,35.30
2022-12-09T05:16:34.345Z,34.07
2022-12-09T05:19:01.657Z,35.50
2022-12-09T05:21:29.371Z,32.93
2022-12-09T05:23:56.872Z,33.20
2022-12-09T05:26:24.472Z,35.73
2022-12-09T05:28:52.486Z,38.27
2022-12-09T05:31:22.861Z,40.63
2022-12-09T05:33:51.642Z,36.87
2022-12-09T05:36:22.347Z,40.13
2022-12-09T05:38:49.695Z,38.87
2022-12-09T05:41:19.033Z,39.83
2022-12-09T05:43:47.086Z,43.90
2022-12-09T05:46:15.792Z,39.70
2022-12-09T05:48:43.607Z,37.50
2022-12-09T05:51:18.169Z,34.07
2022-12-09T05:53:45.592Z,39.10
2022-12-09T05:56:16.955Z,44.57
2022-12-09T05:58:44.413Z,46.47
2022-12-09T06:01:12.520Z,36.53
2022-12-09T06:03:39.767Z,40.17
2022-12-09T06:06:10.296Z,40.33
2022-12-09T06:08:38.549Z,45.50
2022-12-09T06:11:12.804Z,30.97
2022-12-09T06:13:40.053Z,37.33
2022-12-09T06:16:08.644Z,37.17
2022-12-09T06:18:37.070Z,40.93
2022-12-09T06:21:09.341Z,35.13
2022-12-09T06:23:38.482Z,33.67
2022-12-09T06:26:06.295Z,42.00
2022-12-09T06:28:34.166Z,35.90
2022-12-09T06:31:01.779Z,41.37
2022-12-09T06:33:53.577Z,31.43
2022-12-09T06:36:16.820Z,39.43
2022-12-09T06:38:44.423Z,36.20
2022-12-09T06:41:14.355Z,33.30
2022-12-09T06:43:41.961Z,37.20
2022-12-09T06:46:14.634Z,34.47
2022-12-09T06:48:42.228Z,34.57
2022-12-09T06:51:10.454Z,34.83
2022-12-09T06:53:37.908Z,42.87
2022-12-09T06:56:11.881Z,36.27
2022-12-09T06:58:45.049Z,51.10
2022-12-09T07:01:23.872Z,40.10
2022-12-09T07:03:54.772Z,38.87
2022-12-09T07:06:34.586Z,38.27
2022-12-09T07:09:08.133Z,38.37
2022-12-09T07:11:36.763Z,42.33
2022-12-09T07:14:04.572Z,37.13
2022-12-09T07:16:32.178Z,39.73
2022-12-09T07:19:00.220Z,38.60
2022-12-09T07:21:29.742Z,37.53
2022-12-09T07:24:00.795Z,40.83
2022-12-09T07:26:32.704Z,44.47
2022-12-09T07:29:03.293Z,40.70
2022-12-09T07:31:31.199Z,47.77
2022-12-09T07:33:59.363Z,45.90
2022-12-09T07:36:29.025Z,46.37
2022-12-09T07:39:02.452Z,42.83
2022-12-09T07:41:30.360Z,45.70
2022-12-09T07:43:57.982Z,52.07
2022-12-09T07:46:27.560Z,46.00
2022-12-09T07:48:56.261Z,41.13
2022-12-09T07:51:25.126Z,44.30
2022-12-09T07:53:52.709Z,42.30
2022-12-09T07:56:20.352Z,43.63
2022-12-09T07:58:49.027Z,46.33
2022-12-09T08:01:18.856Z,50.77
2022-12-09T08:03:48.516Z,49.93
2022-12-09T08:06:20.480Z,54.70
2022-12-09T08:08:48.421Z,48.27
2022-12-09T08:11:23.518Z,48.47
2022-12-09T08:13:52.391Z,46.00
2022-12-09T08:16:23.016Z,59.53
2022-12-09T08:18:50.832Z,59.43
2022-12-09T08:21:30.628Z,53.53
2022-12-09T08:24:02.265Z,59.63
2022-12-09T08:26:32.402Z,52.47
2022-12-09T08:29:00.991Z,53.30
2022-12-09T08:31:28.804Z,55.60
2022-12-09T08:33:57.104Z,52.03
2022-12-09T08:36:40.116Z,50.60
2022-12-09T08:39:25.676Z,39.50
2022-12-09T08:42:47.785Z,50.43
2022-12-09T08:45:50.054Z,43.23
2022-12-09T08:48:32.861Z,49.07
2022-12-09T08:51:35.119Z,46.70
2022-12-09T08:54:37.131Z,45.90
2022-12-09T08:57:43.205Z,43.47
2022-12-09T09:00:25.260Z,38.77
2022-12-09T09:03:27.387Z,42.90
2022-12-09T09:06:30.310Z,43.03
2022-12-09T09:09:33.422Z,44.73
2022-12-09T09:12:15.467Z,44.10
2022-12-09T09:15:17.606Z,44.97
2022-12-09T09:18:40.191Z,55.10
2022-12-09T09:21:42.499Z,41.00
2022-12-09T09:24:44.343Z,42.50
2022-12-09T09:27:46.511Z,44.17
2022-12-09T09:30:28.630Z,40.43
2022-12-09T09:33:30.819Z,42.90
2022-12-09T09:36:33.412Z,43.97
2022-12-09T09:39:35.533Z,44.97
2022-12-09T09:42:23.499Z,45.13
2022-12-09T09:45:27.496Z,43.60
2022-12-09T09:48:49.602Z,49.10
2022-12-09T09:51:52.808Z,45.67
2022-12-09T09:54:35.075Z,48.23
2022-12-09T09:57:43.805Z,41.00
2022-12-09T10:00:52.568Z,41.13
2022-12-09T10:04:15.803Z,42.00
2022-12-09T10:07:07.188Z,49.40
2022-12-09T10:10:05.587Z,43.40
2022-12-09T10:13:18.371Z,42.80
2022-12-09T10:16:32.836Z,44.17
2022-12-09T10:19:20.893Z,45.43
2022-12-09T10:22:25.658Z,41.60
2022-12-09T10:25:29.214Z,44.53
2022-12-09T10:28:20.846Z,46.80
2022-12-09T10:31:03.345Z,49.27
2022-12-09T10:34:05.630Z,42.90
2022-12-09T10:36:48.823Z,41.33
2022-12-09T10:39:21.933Z,45.57
2022-12-09T10:42:11.460Z,47.90
2022-12-09T10:44:39.021Z,46.40
2022-12-09T10:47:24.066Z,44.77
2022-12-09T10:49:54.390Z,41.53
2022-12-09T10:52:23.637Z,44.00
2022-12-09T10:54:51.606Z,46.73
2022-12-09T10:57:18.982Z,38.87
2022-12-09T11:00:00.840Z,43.23
2022-12-09T11:02:30.275Z,48.20
2022-12-09T11:05:20.179Z,42.97
2022-12-09T11:07:50.341Z,44.90
2022-12-09T11:10:22.325Z,40.63
2022-12-09T11:13:01.657Z,44.93
2022-12-09T11:15:35.347Z,47.00
2022-12-09T11:18:23.048Z,46.57
2022-12-09T11:20:58.055Z,45.90
2022-12-09T11:23:25.504Z,48.23
2022-12-09T11:26:01.092Z,38.90
2022-12-09T11:28:31.321Z,48.13
2022-12-09T11:33:56.890Z,40.53
2022-12-09T11:36:30.787Z,46.73
2022-12-09T11:39:21.902Z,46.47
2022-12-09T11:42:19.017Z,45.83
2022-12-09T11:45:15.056Z,47.33
2022-12-09T11:48:32.026Z,43.10
2022-12-09T11:51:47.534Z,44.53
2022-12-09T11:54:57.361Z,36.20
2022-12-09T11:58:02.025Z,41.43
2022-12-09T12:01:13.179Z,40.17
2022-12-09T12:04:14.951Z,40.43
2022-12-09T12:07:05.596Z,38.63
2022-12-09T12:09:46.488Z,40.03
2022-12-09T12:12:23.247Z,43.80
2022-12-09T12:14:50.554Z,41.73
2022-12-09T12:17:24.757Z,42.97
2022-12-09T12:19:54.286Z,38.90
2022-12-09T12:22:40.473Z,46.43
2022-12-09T12:25:26.263Z,40.47
2022-12-09T12:28:14.395Z,40.53
2022-12-09T12:30:54.338Z,40.50
2022-12-09T12:36:46.165Z,39.37
2022-12-09T12:39:47.041Z,43.43
2022-12-09T12:42:23.373Z,44.43
2022-12-09T12:45:35.926Z,46.70
2022-12-09T12:48:18.584Z,52.13
2022-12-09T12:50:45.500Z,47.97
2022-12-09T12:53:27.491Z,46.17
2022-12-09T12:56:01.969Z,44.13
2022-12-09T12:58:32.286Z,44.60
2022-12-09T13:01:05.209Z,44.33
2022-12-09T13:03:47.627Z,47.53
2022-12-09T13:06:18.645Z,47.73
2022-12-09T13:08:52.610Z,47.00
2022-12-09T13:11:37.523Z,47.77
2022-12-09T13:14:11.368Z,47.70
2022-12-09T13:16:43.380Z,53.60
2022-12-09T13:19:13.463Z,50.80
2022-12-09T13:21:41.079Z,53.97
2022-12-09T13:24:22.003Z,52.30
2022-12-09T13:27:14.715Z,50.80
2022-12-09T13:30:17.016Z,53.50
2022-12-09T13:33:08.656Z,50.37
2022-12-09T13:35:51.910Z,60.23
2022-12-09T13:38:40.675Z,69.87
2022-12-09T13:42:05.320Z,48.97
2022-12-09T13:44:36.963Z,50.93
2022-12-09T13:47:26.129Z,43.07
2022-12-09T13:49:58.742Z,50.57
2022-12-09T13:52:52.263Z,49.87
2022-12-09T13:55:25.876Z,52.30
2022-12-09T13:58:04.760Z,51.40
2022-12-09T14:01:04.867Z,44.50
2022-12-09T14:04:26.931Z,54.33
2022-12-09T14:07:10.312Z,55.60
2022-12-09T14:09:48.461Z,50.07
2022-12-09T14:12:44.101Z,53.83
2022-12-09T14:15:51.302Z,50.57
2022-12-09T14:18:33.463Z,53.87
2022-12-09T14:21:18.409Z,48.93
2022-12-09T14:24:09.555Z,53.97
2022-12-09T14:26:53.865Z,53.27
2022-12-09T14:29:58.504Z,56.43
2022-12-09T14:33:30.683Z,52.20
2022-12-09T14:36:15.540Z,51.83
2022-12-09T14:39:24.619Z,53.60
2022-12-09T14:42:42.774Z,54.47
2022-12-09T14:45:35.627Z,60.57
2022-12-09T14:48:09.450Z,59.87
2022-12-09T14:50:38.784Z,59.37
2022-12-09T14:53:19.105Z,55.00
2022-12-09T14:55:46.546Z,57.13
2022-12-09T14:58:21.725Z,58.17
2022-12-09T15:01:01.289Z,45.50
2022-12-09T15:03:35.629Z,59.53
2022-12-09T15:06:18.277Z,49.30
2022-12-09T15:08:45.785Z,49.60
2022-12-09T15:11:20.671Z,63.83
2022-12-09T15:13:51.210Z,54.50
2022-12-09T15:16:22.065Z,52.70
2022-12-09T15:18:50.275Z,55.60
2022-12-09T15:21:27.784Z,56.47
2022-12-09T15:23:55.761Z,55.43
2022-12-09T15:26:26.958Z,63.57
2022-12-09T15:28:59.646Z,60.83
2022-12-09T15:31:29.221Z,55.77
2022-12-09T15:34:15.836Z,58.33
2022-12-09T15:37:04.722Z,51.53
2022-12-09T15:39:40.056Z,64.33
2022-12-09T15:42:18.106Z,65.63
2022-12-09T15:44:53.473Z,63.17
2022-12-09T15:47:33.703Z,65.33
2022-12-09T15:50:47.818Z,58.07
2022-12-09T15:53:26.862Z,61.80
2022-12-09T15:55:53.771Z,72.33
2022-12-09T15:58:25.854Z,67.20
2022-12-09T16:00:53.847Z,57.87
2022-12-09T16:03:26.047Z,57.43
2022-12-09T16:05:55.449Z,63.90
2022-12-09T16:08:23.604Z,70.10
2022-12-09T16:10:52.228Z,72.77
2022-12-09T16:13:21.430Z,75.73
2022-12-09T16:15:54.207Z,76.03
2022-12-09T16:18:28.250Z,81.40
2022-12-09T16:21:15.016Z,77.70
2022-12-09T16:23:44.157Z,85.67
2022-12-09T16:26:28.068Z,73.67
2022-12-09T16:28:58.701Z,79.53
2022-12-09T16:31:25.848Z,80.37
2022-12-09T16:33:53.613Z,71.43
2022-12-09T16:36:25.556Z,80.77
2022-12-09T16:39:07.901Z,73.07
2022-12-09T16:41:52.952Z,96.30
2022-12-09T16:44:33.812Z,85.50
2022-12-09T16:47:16.407Z,71.07
2022-12-09T16:49:48.137Z,72.57
2022-12-09T16:52:20.550Z,76.87
2022-12-09T16:54:49.142Z,76.00
2022-12-09T16:57:18.740Z,75.07
2022-12-09T16:59:46.676Z,68.27
2022-12-09T17:02:24.012Z,69.67
2022-12-09T17:04:52.038Z,69.40
2022-12-09T17:07:19.075Z,76.47
2022-12-09T17:09:46.330Z,69.13
2022-12-09T17:12:13.353Z,70.00
2022-12-09T17:14:40.692Z,70.87
2022-12-09T17:17:07.701Z,75.90
2022-12-09T17:19:35.111Z,82.60
2022-12-09T17:22:02.012Z,80.30
2022-12-09T17:24:29.210Z,76.53
2022-12-09T17:26:56.166Z,76.20
2022-12-09T17:29:23.354Z,67.87
2022-12-09T17:31:51.876Z,81.67
2022-12-09T17:34:20.178Z,79.13
2022-12-09T17:36:47.358Z,94.50
2022-12-09T17:39:15.068Z,105.13
2022-12-09T17:41:42.760Z,105.37
2022-12-09T17:44:10.045Z,102.87
2022-12-09T17:46:37.059Z,107.80
2022-12-09T17:49:04.465Z,112.27
2022-12-09T17:51:35.931Z,116.83
2022-12-09T17:54:04.525Z,108.53
2022-12-09T17:56:31.592Z,102.57
2022-12-09T17:59:07.312Z,105.23
2022-12-09T18:01:36.245Z,97.77
2022-12-09T18:04:09.520Z,103.87
2022-12-09T18:06:39.279Z,109.10
2022-12-09T18:09:08.809Z,109.17
2022-12-09T18:11:36.330Z,109.90
2022-12-09T18:14:04.515Z,115.23
2022-12-09T18:16:32.058Z,123.07
2022-12-09T18:19:08.705Z,108.43
2022-12-09T18:21:36.012Z,123.77
2022-12-09T18:24:03.783Z,120.00
2022-12-09T18:26:34.141Z,117.87
2022-12-09T18:29:05.872Z,122.97
2022-12-09T18:31:32.985Z,123.00
2022-12-09T18:34:00.178Z,126.47
2022-12-09T18:36:28.837Z,117.13
2022-12-09T18:38:58.692Z,114.13
2022-12-09T18:41:29.196Z,124.37
2022-12-09T18:43:58.696Z,121.90
2022-12-09T18:46:30.086Z,127.23
2022-12-09T18:48:57.501Z,112.83
2022-12-09T18:51:24.933Z,117.03
2022-12-09T18:53:57.960Z,111.13
2022-12-09T18:56:25.773Z,116.23
2022-12-09T18:59:09.487Z,105.33
2022-12-09T19:01:41.119Z,109.87
2022-12-09T19:04:17.895Z,123.53
2022-12-09T19:06:47.563Z,113.90
2022-12-09T19:09:17.515Z,108.27
2022-12-09T19:11:46.699Z,102.47
2022-12-09T19:14:15.902Z,115.07
2022-12-09T19:16:43.996Z,113.00
2022-12-09T19:19:14.329Z,109.67
2022-12-09T19:21:42.432Z,109.33
2022-12-09T19:24:26.084Z,106.27
2022-12-09T19:26:55.057Z,108.57
2022-12-09T19:29:24.665Z,108.07
2022-12-09T19:31:53.767Z,111.30
2022-12-09T19:34:24.167Z,108.73
2022-12-09T19:36:53.640Z,99.83
2022-12-09T19:39:24.065Z,105.17
2022-12-09T19:41:51.626Z,106.07
2022-12-09T19:44:37.269Z,102.53
2022-12-09T19:47:07.567Z,110.03
2022-12-09T19:49:36.248Z,103.73
2022-12-09T19:52:03.592Z,119.40
2022-12-09T19:54:30.886Z,102.00
2022-12-09T19:56:57.866Z,103.17
2022-12-09T19:59:26.729Z,114.23
2022-12-09T20:01:53.755Z,101.40
2022-12-09T20:04:48.223Z,99.00
2022-12-09T20:07:09.902Z,99.40
2022-12-09T20:09:37.932Z,93.47
2022-12-09T20:12:05.317Z,102.17
2022-12-09T20:14:32.619Z,103.17
2022-12-09T20:16:59.895Z,102.33
2022-12-09T20:19:27.115Z,108.30
2022-12-09T20:21:54.252Z,104.53
2022-12-09T20:24:21.457Z,116.80
2022-12-09T20:26:48.428Z,109.50
2022-12-09T20:29:15.724Z,113.70
2022-12-09T20:31:43.064Z,104.00
2022-12-09T20:34:16.214Z,109.70
2022-12-09T20:36:45.449Z,91.87
2022-12-09T20:39:18.408Z,96.63
2022-12-09T20:41:46.865Z,94.80
2022-12-09T20:44:15.339Z,99.13
2022-12-09T20:46:49.301Z,103.53
2022-12-09T20:49:16.725Z,103.20
2022-12-09T20:51:48.653Z,101.23
2022-12-09T20:54:16.396Z,106.37
2022-12-09T20:56:43.540Z,102.63
2022-12-09T20:59:13.530Z,108.63
2022-12-09T21:01:41.309Z,104.23
2022-12-09T21:04:08.631Z,111.07
2022-12-09T21:06:38.430Z,109.27
2022-12-09T21:09:08.746Z,107.87
2022-12-09T21:11:36.269Z,103.00
2022-12-09T21:14:04.854Z,95.20
2022-12-09T21:16:34.363Z,90.40
2022-12-09T21:19:05.237Z,90.90
2022-12-09T21:21:35.449Z,92.90
2022-12-09T21:24:03.352Z,88.83
2022-12-09T21:26:30.310Z,99.90
2022-12-09T21:29:01.373Z,95.57
2022-12-09T21:31:30.908Z,80.37
2022-12-09T21:34:01.798Z,87.37
2022-12-09T21:36:35.452Z,87.23
2022-12-09T21:39:03.785Z,99.43
2022-12-09T21:41:33.887Z,91.00
2022-12-09T21:44:01.183Z,89.73
2022-12-09T21:46:33.563Z,94.93
2022-12-09T21:49:04.285Z,91.17
2022-12-09T21:51:32.753Z,96.17
2022-12-09T21:54:00.554Z,87.87
2022-12-09T21:56:30.722Z,91.20
2022-12-09T21:58:59.012Z,85.43
2022-12-09T22:01:29.114Z,95.77
2022-12-09T22:03:58.149Z,86.67
2022-12-09T22:06:25.602Z,92.53
2022-12-09T22:08:53.174Z,107.60
2022-12-09T22:11:23.391Z,105.37
2022-12-09T22:13:51.018Z,93.43
2022-12-09T22:16:23.314Z,88.43
2022-12-09T22:18:52.946Z,97.53
2022-12-09T22:21:25.986Z,91.43
2022-12-09T22:23:55.204Z,91.87
2022-12-09T22:26:23.044Z,100.50
2022-12-09T22:28:50.903Z,101.53
2022-12-09T22:31:29.335Z,99.00
2022-12-09T22:34:00.622Z,87.47
2022-12-09T22:36:27.830Z,78.70
2022-12-09T22:38:55.430Z,85.57
2022-12-09T22:41:25.757Z,84.70
2022-12-09T22:43:54.993Z,101.17
2022-12-09T22:46:28.289Z,92.83
2022-12-09T22:48:57.257Z,94.60
2022-12-09T22:51:26.468Z,93.87
2022-12-09T22:53:55.318Z,100.40
2022-12-09T22:56:23.098Z,97.97
2022-12-09T22:58:50.976Z,100.40
2022-12-09T23:01:24.205Z,99.17
2022-12-09T23:03:51.854Z,91.67
2022-12-09T23:06:18.869Z,93.10
2022-12-09T23:08:46.774Z,91.73
2022-12-09T23:11:16.725Z,93.40
2022-12-09T23:13:44.392Z,102.87
2022-12-09T23:16:15.447Z,107.63
2022-12-09T23:18:43.023Z,101.07
2022-12-09T23:21:11.454Z,101.90
2022-12-09T23:23:39.311Z,107.73
2022-12-09T23:26:09.182Z,104.80
2022-12-09T23:28:41.341Z,97.03
2022-12-09T23:31:10.371Z,99.27
2022-12-09T23:33:39.228Z,97.47
2022-12-09T23:36:08.853Z,94.40
2022-12-09T23:38:36.729Z,95.47
2022-12-09T23:41:04.322Z,98.47
2022-12-09T23:43:36.654Z,94.00
2022-12-09T23:46:14.462Z,98.50
2022-12-09T23:48:44.336Z,104.30
2022-12-09T23:51:12.723Z,111.87
2022-12-09T23:53:41.462Z,108.33
2022-12-09T23:56:12.502Z,106.27
2022-12-09T23:58:40.224Z,88.23
